Time;durP1;ratioP1;P1;durP2;ratioP2;P2;SDS_P1;SDS_P2;PMS_P1;PMS_P2;Temp;Humidity;BMP_temperature;BMP_pressure;BME280_temperature;BME280_humidity;BME280_pressure;Samples;Min_cycle;Max_cycle;Signal;HPM_P1;HPM_P2
2021/12/16 00:02:30;;;;;;;9.77;1.55;;;2.50;99.90;;;;;;5052809;28;20036;-63
2021/12/16 00:07:39;;;;;;;12.50;1.50;;;2.50;99.90;;;;;;5052680;28;20365;-63
2021/12/16 00:34:27;;;;;;;9.38;1.88;;;2.50;99.90;;;;;;5052379;28;20064;-64
2021/12/16 00:36:53;;;;;;;11.10;1.63;;;2.50;99.90;;;;;;5050716;28;20431;-64
2021/12/16 00:39:32;;;;;;;9.40;1.77;;;2.40;99.90;;;;;;5052361;28;20052;-64
2021/12/16 00:42:07;;;;;;;9.90;1.80;;;2.40;99.90;;;;;;5052247;28;20021;-64
2021/12/16 00:49:38;;;;;;;11.38;1.73;;;2.40;99.90;;;;;;5052243;28;20033;-64
2021/12/16 00:55:01;;;;;;;11.07;1.98;;;2.40;99.90;;;;;;5052072;28;20423;-66
2021/12/16 00:57:26;;;;;;;11.27;1.95;;;2.30;99.90;;;;;;5052151;28;20065;-66
2021/12/16 00:59:54;;;;;;;11.57;1.73;;;2.40;99.90;;;;;;5051569;28;20067;-66
2021/12/16 01:50:08;;;;;;;11.32;2.03;;;1.90;99.90;;;;;;5051186;28;20074;-64
2021/12/16 01:55:14;;;;;;;8.55;2.10;;;1.80;99.90;;;;;;5051287;28;20480;-65
2021/12/16 01:57:51;;;;;;;18.27;2.00;;;1.80;99.90;;;;;;5049935;28;20044;-65
2021/12/16 02:00:42;;;;;;;8.68;2.05;;;1.90;99.90;;;;;;5051291;28;20479;-65
2021/12/16 02:03:08;;;;;;;17.95;2.17;;;1.90;99.90;;;;;;5051082;28;20029;-65
2021/12/16 02:08:24;;;;;;;9.75;1.88;;;1.90;99.90;;;;;;5051357;28;20025;-64
2021/12/16 02:54:01;;;;;;;13.15;2.42;;;1.60;99.90;;;;;;5053877;28;20047;-65
2021/12/16 02:56:28;;;;;;;7.20;1.67;;;1.70;99.90;;;;;;5053777;28;20045;-65
2021/12/16 02:58:56;;;;;;;8.18;1.67;;;1.70;99.90;;;;;;5053876;28;20025;-66
2021/12/16 03:01:29;;;;;;;11.35;1.90;;;1.70;99.90;;;;;;5053872;28;20033;-65
2021/12/16 03:03:56;;;;;;;9.05;1.88;;;1.70;99.90;;;;;;5053325;28;20112;-65
2021/12/16 03:06:23;;;;;;;9.90;2.33;;;1.70;99.90;;;;;;5054027;28;20100;-65
2021/12/16 03:08:50;;;;;;;11.40;1.63;;;1.60;99.90;;;;;;5053538;28;20507;-66
2021/12/16 03:11:23;;;;;;;16.00;1.95;;;1.60;99.90;;;;;;5053657;28;20032;-65
2021/12/16 03:14:17;;;;;;;14.65;1.63;;;1.60;99.90;;;;;;5053584;28;20029;-66
2021/12/16 03:17:08;;;;;;;12.02;1.92;;;1.50;99.90;;;;;;5053355;28;20445;-66
2021/12/16 03:19:53;;;;;;;12.10;1.88;;;1.40;99.90;;;;;;5053590;28;20498;-66
2021/12/16 03:22:50;;;;;;;15.10;2.28;;;1.40;99.90;;;;;;5053610;28;20477;-66
2021/12/16 03:35:01;;;;;;;9.35;1.65;;;1.40;99.90;;;;;;5052979;28;20412;-65
2021/12/16 03:37:30;;;;;;;4.75;1.33;;;1.40;99.90;;;;;;5053174;28;20029;-65
2021/12/16 03:40:06;;;;;;;7.00;1.80;;;1.30;99.90;;;;;;5053075;28;20104;-64
2021/12/16 03:42:38;;;;;;;10.60;1.85;;;1.30;99.90;;;;;;5053123;28;20029;-64
2021/12/16 03:48:23;;;;;;;7.72;1.38;;;1.30;99.90;;;;;;5053001;28;20032;-64
2021/12/16 03:50:49;;;;;;;11.35;1.60;;;1.30;99.90;;;;;;5052801;28;20021;-64
2021/12/16 03:53:16;;;;;;;5.45;1.40;;;1.30;99.90;;;;;;5053221;28;20049;-64
2021/12/16 03:55:46;;;;;;;9.05;2.17;;;1.30;99.90;;;;;;5052557;28;20378;-65
2021/12/16 03:58:13;;;;;;;9.40;1.52;;;1.30;99.90;;;;;;5053086;28;20503;-65
2021/12/16 04:00:44;;;;;;;7.45;1.95;;;1.40;99.90;;;;;;5052605;28;20407;-65
2021/12/16 04:03:11;;;;;;;13.73;1.95;;;1.40;99.90;;;;;;5052742;28;20021;-65
2021/12/16 04:05:37;;;;;;;6.18;1.83;;;1.30;99.90;;;;;;5052930;28;20036;-65
2021/12/16 04:08:04;;;;;;;5.38;1.60;;;1.30;99.90;;;;;;5052639;28;20389;-65
2021/12/16 04:10:42;;;;;;;8.07;1.80;;;1.40;99.90;;;;;;5052665;28;20470;-65
2021/12/16 04:13:12;;;;;;;14.40;2.10;;;1.40;99.90;;;;;;5053005;28;20117;-65
2021/12/16 04:15:37;;;;;;;7.55;1.60;;;1.30;99.90;;;;;;5052546;28;20033;-65
2021/12/16 04:18:05;;;;;;;7.13;1.38;;;1.30;99.90;;;;;;5052655;28;20021;-65
2021/12/16 04:20:31;;;;;;;6.97;1.40;;;1.30;99.90;;;;;;5052479;28;20056;-65
2021/12/16 04:22:58;;;;;;;9.10;1.50;;;1.30;99.90;;;;;;5052170;28;20032;-65
2021/12/16 04:25:34;;;;;;;8.18;1.40;;;1.30;99.90;;;;;;5052248;28;20033;-65
2021/12/16 04:28:03;;;;;;;6.50;1.23;;;1.30;99.90;;;;;;5052400;28;20137;-65
2021/12/16 04:30:31;;;;;;;9.43;1.70;;;1.30;99.90;;;;;;5052275;28;20028;-65
2021/12/16 04:32:57;;;;;;;7.95;1.40;;;1.20;99.90;;;;;;5052002;28;20021;-64
2021/12/16 04:35:24;;;;;;;2.92;1.20;;;1.20;99.90;;;;;;5050868;28;20431;-64
2021/12/16 04:37:50;;;;;;;8.55;1.67;;;1.20;99.90;;;;;;5051938;28;20032;-64
2021/12/16 04:40:17;;;;;;;7.95;1.77;;;1.20;99.90;;;;;;5052318;28;20033;-64
2021/12/16 04:42:45;;;;;;;9.85;1.67;;;1.20;99.90;;;;;;5051173;28;20025;-64
2021/12/16 04:45:15;;;;;;;7.53;1.55;;;1.20;99.90;;;;;;5051899;28;20037;-64
2021/12/16 04:47:41;;;;;;;8.23;1.30;;;1.20;99.90;;;;;;5052317;28;20063;-64
2021/12/16 04:50:09;;;;;;;4.75;1.58;;;1.20;99.90;;;;;;5051899;28;20035;-64
2021/12/16 04:52:35;;;;;;;7.53;1.60;;;1.30;99.90;;;;;;5052012;28;20444;-64
2021/12/16 04:55:02;;;;;;;6.63;1.40;;;1.30;99.90;;;;;;5051613;28;20040;-64
2021/12/16 04:57:28;;;;;;;5.72;1.20;;;1.30;99.90;;;;;;5052138;28;20132;-64
2021/12/16 04:59:54;;;;;;;3.83;1.08;;;1.30;99.90;;;;;;5051755;28;20450;-65
2021/12/16 05:02:22;;;;;;;7.28;1.52;;;1.20;99.90;;;;;;5051685;28;20028;-65
2021/12/16 05:04:49;;;;;;;6.20;1.17;;;1.20;99.90;;;;;;5051438;28;20028;-65
2021/12/16 05:07:15;;;;;;;7.90;1.20;;;1.20;99.90;;;;;;5051653;28;20032;-65
2021/12/16 05:12:19;;;;;;;3.75;1.20;;;1.20;99.90;;;;;;5051521;28;20386;-64
2021/12/16 05:14:47;;;;;;;4.55;1.40;;;1.20;99.90;;;;;;5051834;28;20028;-63
2021/12/16 05:20:12;;;;;;;7.03;1.48;;;1.20;99.90;;;;;;5050792;28;20056;-64
2021/12/16 05:28:04;;;;;;;7.13;1.45;;;1.20;99.90;;;;;;5051695;28;20021;-64
2021/12/16 05:30:30;;;;;;;6.03;1.88;;;1.20;99.90;;;;;;5051584;28;20032;-66
2021/12/16 05:32:56;;;;;;;3.67;0.98;;;1.10;99.90;;;;;;5051386;28;20075;-63
2021/12/16 05:35:23;;;;;;;3.80;1.40;;;1.10;99.90;;;;;;5051515;28;20032;-65
2021/12/16 05:37:50;;;;;;;2.95;1.10;;;1.10;99.90;;;;;;5051664;28;20021;-64
2021/12/16 05:40:24;;;;;;;5.28;1.05;;;1.10;99.90;;;;;;5051419;28;20032;-63
2021/12/16 05:42:58;;;;;;;4.75;1.25;;;1.50;99.90;;;;;;5051430;28;20025;-62
2021/12/16 05:45:25;;;;;;;5.47;1.25;;;2.60;99.90;;;;;;5050924;28;20129;-62
2021/12/16 05:47:54;;;;;;;3.60;1.25;;;2.30;99.90;;;;;;5050970;28;20025;-64
2021/12/16 05:50:21;;;;;;;4.57;1.00;;;2.00;99.90;;;;;;5050880;28;20017;-64
2021/12/16 05:52:47;;;;;;;4.28;1.05;;;1.80;99.90;;;;;;5051485;28;20029;-64
2021/12/16 05:55:15;;;;;;;5.10;1.45;;;1.60;99.90;;;;;;5054378;28;20150;-64
2021/12/16 05:57:42;;;;;;;4.28;1.17;;;1.50;99.90;;;;;;5054252;28;20086;-65
2021/12/16 06:00:17;;;;;;;4.28;1.10;;;1.40;99.90;;;;;;5053419;28;20381;-63
2021/12/16 06:02:43;;;;;;;4.82;1.48;;;1.40;99.90;;;;;;5054105;28;20029;-62
2021/12/16 06:05:09;;;;;;;3.92;1.38;;;1.40;99.90;;;;;;5053727;28;20029;-63
2021/12/16 06:07:35;;;;;;;4.57;1.05;;;1.30;99.90;;;;;;5053644;28;20025;-63
2021/12/16 06:10:02;;;;;;;4.20;1.45;;;1.30;99.90;;;;;;5053465;28;20043;-62
2021/12/16 06:12:28;;;;;;;3.38;1.00;;;1.30;99.90;;;;;;5054234;28;20245;-62
2021/12/16 06:15:13;;;;;;;8.80;1.58;;;1.20;99.90;;;;;;5051988;28;20029;-62
2021/12/16 06:28:33;;;;;;;4.05;1.10;;;1.40;99.90;;;;;;5055260;28;20040;-64
2021/12/16 06:31:00;;;;;;;5.20;1.00;;;1.30;99.90;;;;;;5054616;28;20111;-64
2021/12/16 06:33:26;;;;;;;7.05;1.38;;;1.20;99.90;;;;;;5054406;28;20020;-64
2021/12/16 06:35:54;;;;;;;4.75;1.00;;;1.20;99.90;;;;;;5054054;28;20114;-64
2021/12/16 06:38:21;;;;;;;3.95;0.85;;;1.20;99.90;;;;;;5054591;28;20029;-64
2021/12/16 06:40:48;;;;;;;3.45;1.00;;;1.20;99.90;;;;;;5054191;28;20029;-64
2021/12/16 06:43:15;;;;;;;5.53;1.15;;;1.10;99.90;;;;;;5054200;28;20024;-64
2021/12/16 06:45:45;;;;;;;3.80;0.95;;;1.20;99.90;;;;;;5054146;28;20031;-64
2021/12/16 06:48:16;;;;;;;2.50;1.10;;;1.20;99.90;;;;;;5053987;28;20025;-64
2021/12/16 06:53:16;;;;;;;6.40;1.60;;;1.10;99.90;;;;;;5054282;28;20056;-64
2021/12/16 06:55:52;;;;;;;7.13;1.10;;;1.10;99.90;;;;;;5053807;28;20790;-65
2021/12/16 06:58:27;;;;;;;2.67;1.00;;;1.10;99.90;;;;;;5054197;28;20035;-64
2021/12/16 07:01:04;;;;;;;1.80;0.95;;;1.10;99.90;;;;;;5054163;28;20029;-65
2021/12/16 07:03:43;;;;;;;1.45;0.95;;;1.20;99.90;;;;;;5053961;28;20068;-63
2021/12/16 07:06:09;;;;;;;5.03;1.30;;;1.30;99.90;;;;;;5053157;28;20419;-64
2021/12/16 07:08:35;;;;;;;4.05;1.30;;;1.30;99.90;;;;;;5053887;28;20028;-64
2021/12/16 07:11:01;;;;;;;6.45;1.30;;;1.20;99.90;;;;;;5053648;28;20413;-62
2021/12/16 07:13:35;;;;;;;3.33;0.88;;;1.20;99.90;;;;;;5053547;28;20366;-62
2021/12/16 07:16:02;;;;;;;2.50;1.10;;;1.20;99.90;;;;;;5053096;28;20017;-62
2021/12/16 07:18:27;;;;;;;6.55;1.55;;;1.20;99.90;;;;;;5052930;28;20024;-62
2021/12/16 07:20:54;;;;;;;2.35;0.98;;;1.20;99.90;;;;;;5053343;28;20070;-62
2021/12/16 07:23:20;;;;;;;4.95;1.23;;;1.20;99.90;;;;;;5053433;28;20067;-61
2021/12/16 07:25:45;;;;;;;6.35;1.20;;;1.10;99.90;;;;;;5053468;28;20053;-62
2021/12/16 07:28:11;;;;;;;3.38;0.93;;;1.10;99.90;;;;;;5053553;28;20028;-61
2021/12/16 07:30:40;;;;;;;7.97;1.10;;;1.10;99.90;;;;;;5052260;28;20591;-62
2021/12/16 07:33:07;;;;;;;5.13;1.20;;;1.50;99.90;;;;;;5053150;28;20032;-63
2021/12/16 07:35:33;;;;;;;2.70;1.10;;;2.20;99.90;;;;;;5053238;28;20059;-62
2021/12/16 07:37:59;;;;;;;4.50;1.13;;;2.10;99.90;;;;;;5053035;28;20040;-63
2021/12/16 07:40:27;;;;;;;3.17;1.15;;;1.90;99.90;;;;;;5053267;28;20041;-63
2021/12/16 07:45:32;;;;;;;4.45;1.05;;;1.60;99.90;;;;;;5053451;28;20503;-63
2021/12/16 07:47:59;;;;;;;2.78;1.10;;;1.60;99.90;;;;;;5052643;28;20032;-64
2021/12/16 07:50:25;;;;;;;2.60;1.25;;;1.60;99.90;;;;;;5052803;28;20109;-64
2021/12/16 07:52:52;;;;;;;5.68;1.30;;;1.60;99.90;;;;;;5052798;28;20122;-64
2021/12/16 07:55:19;;;;;;;6.57;1.55;;;1.50;99.90;;;;;;5052939;28;20115;-64
2021/12/16 07:57:45;;;;;;;3.17;1.17;;;1.50;99.90;;;;;;5052623;28;20497;-64
2021/12/16 08:00:28;;;;;;;8.90;1.73;;;1.50;99.90;;;;;;5052501;28;20061;-64
2021/12/16 08:02:54;;;;;;;2.95;0.93;;;1.50;99.90;;;;;;5052568;28;20028;-64
2021/12/16 08:05:23;;;;;;;3.03;1.20;;;1.40;99.90;;;;;;5052573;28;20112;-63
2021/12/16 08:07:49;;;;;;;1.95;0.95;;;1.50;99.90;;;;;;5052437;28;20489;-63
2021/12/16 08:10:18;;;;;;;5.82;1.08;;;1.50;99.90;;;;;;5052191;28;20051;-64
2021/12/16 08:12:44;;;;;;;4.20;0.90;;;1.50;99.90;;;;;;5052175;28;20029;-63
2021/12/16 08:15:11;;;;;;;4.45;0.90;;;1.40;99.90;;;;;;5052061;28;20075;-64
2021/12/16 08:17:37;;;;;;;2.80;1.08;;;1.40;99.90;;;;;;5052088;28;20109;-63
2021/12/16 08:20:04;;;;;;;3.22;1.10;;;1.80;99.90;;;;;;5052151;28;20108;-63
2021/12/16 08:22:31;;;;;;;2.60;0.80;;;1.70;99.90;;;;;;5052290;28;20029;-64
2021/12/16 08:24:56;;;;;;;2.30;0.77;;;1.60;99.90;;;;;;5051888;28;20037;-63
2021/12/16 08:27:22;;;;;;;1.88;1.00;;;1.60;99.90;;;;;;5052164;28;20087;-64
2021/12/16 08:29:48;;;;;;;5.22;1.23;;;1.80;99.90;;;;;;5052640;28;20033;-63
2021/12/16 08:32:14;;;;;;;2.95;1.30;;;2.60;99.90;;;;;;5052105;28;20513;-64
2021/12/16 08:34:43;;;;;;;1.25;0.80;;;3.10;99.90;;;;;;5052176;28;20031;-64
2021/12/16 08:37:09;;;;;;;5.50;0.93;;;2.70;99.90;;;;;;5051929;28;20032;-64
2021/12/16 08:39:36;;;;;;;1.85;0.93;;;2.30;99.90;;;;;;5052197;28;20025;-64
2021/12/16 08:42:06;;;;;;;5.85;1.30;;;2.10;99.90;;;;;;5051874;28;20079;-64
2021/12/16 08:44:32;;;;;;;4.90;1.08;;;1.90;99.90;;;;;;5051987;28;20048;-64
2021/12/16 08:47:06;;;;;;;1.90;0.88;;;1.80;99.90;;;;;;5050987;28;20378;-65
2021/12/16 08:49:32;;;;;;;1.90;0.98;;;1.70;99.90;;;;;;5049626;28;20032;-65
2021/12/16 08:52:01;;;;;;;3.20;1.00;;;1.90;99.90;;;;;;5051290;28;20513;-64
2021/12/16 08:54:27;;;;;;;3.17;1.10;;;1.90;99.90;;;;;;5052220;28;20033;-65
2021/12/16 08:56:53;;;;;;;3.00;1.33;;;1.80;99.90;;;;;;5051603;28;20041;-65
2021/12/16 08:59:20;;;;;;;1.10;1.00;;;1.70;99.90;;;;;;5051910;28;20041;-63
2021/12/16 09:01:50;;;;;;;2.95;1.00;;;2.20;99.90;;;;;;5051780;28;20052;-64
2021/12/16 09:04:19;;;;;;;2.13;0.70;;;4.30;99.90;;;;;;5051679;28;20072;-64
2021/12/16 09:06:44;;;;;;;3.33;1.00;;;4.00;99.90;;;;;;5051608;28;20309;-64
2021/12/16 09:09:11;;;;;;;2.97;0.93;;;3.30;99.90;;;;;;5051660;28;20021;-64
2021/12/16 09:11:43;;;;;;;3.28;1.10;;;2.80;99.90;;;;;;5051588;28;20104;-64
2021/12/16 09:14:09;;;;;;;4.03;1.02;;;2.50;99.90;;;;;;5051909;28;20033;-64
2021/12/16 09:16:36;;;;;;;3.58;1.30;;;2.40;99.90;;;;;;5051683;28;20017;-64
2021/12/16 09:19:05;;;;;;;6.30;2.20;;;2.20;99.90;;;;;;5051564;28;20434;-64
2021/12/16 09:21:33;;;;;;;4.05;1.23;;;2.10;99.90;;;;;;5051686;28;20028;-64
2021/12/16 09:23:59;;;;;;;4.78;1.40;;;2.00;99.90;;;;;;5051377;28;20036;-64
2021/12/16 09:26:26;;;;;;;3.85;1.20;;;2.00;99.90;;;;;;5051894;28;20514;-64
2021/12/16 09:28:54;;;;;;;3.22;1.27;;;1.90;99.90;;;;;;5054407;28;20052;-64
2021/12/16 09:31:23;;;;;;;3.58;1.20;;;1.90;99.90;;;;;;5055720;28;20033;-64
2021/12/16 09:33:51;;;;;;;3.80;1.42;;;1.90;99.90;;;;;;5055618;28;20048;-65
2021/12/16 09:36:23;;;;;;;2.55;1.30;;;1.90;99.90;;;;;;5055646;28;20418;-65
2021/12/16 09:38:50;;;;;;;3.30;1.60;;;1.90;99.90;;;;;;5055860;28;20120;-65
2021/12/16 09:41:17;;;;;;;5.32;1.70;;;1.90;99.90;;;;;;5055358;28;20096;-66
2021/12/16 09:43:46;;;;;;;5.82;3.00;;;1.90;99.90;;;;;;5054846;28;20121;-65
2021/12/16 09:46:16;;;;;;;9.43;4.40;;;1.80;99.90;;;;;;5055467;28;20041;-65
2021/12/16 09:48:43;;;;;;;6.55;1.80;;;1.80;99.90;;;;;;5055496;28;20028;-65
2021/12/16 09:51:20;;;;;;;3.35;1.42;;;1.70;99.90;;;;;;5055164;28;20028;-66
2021/12/16 09:53:47;;;;;;;2.50;0.90;;;1.70;99.90;;;;;;5055342;28;20029;-65
2021/12/16 09:56:12;;;;;;;3.67;0.85;;;1.70;99.90;;;;;;5054956;28;20045;-65
2021/12/16 09:58:43;;;;;;;0.77;0.60;;;1.70;99.90;;;;;;5055341;28;20113;-65
2021/12/16 10:01:10;;;;;;;2.80;1.10;;;2.70;99.90;;;;;;5055178;28;20052;-65
2021/12/16 10:03:45;;;;;;;2.30;0.80;;;3.20;99.90;;;;;;5055163;28;20424;-65
2021/12/16 10:06:11;;;;;;;1.92;0.75;;;3.00;99.90;;;;;;5054834;28;20373;-65
2021/12/16 10:08:40;;;;;;;1.45;0.68;;;2.80;99.90;;;;;;5054841;28;20059;-65
2021/12/16 10:11:05;;;;;;;2.28;0.70;;;2.60;99.90;;;;;;5054910;28;20108;-65
2021/12/16 10:13:42;;;;;;;1.88;0.90;;;2.90;99.90;;;;;;5053689;28;20103;-65
2021/12/16 10:18:36;;;;;;;1.25;0.60;;;2.60;99.90;;;;;;5054209;28;20025;-65
2021/12/16 10:21:08;;;;;;;1.80;0.88;;;2.50;99.90;;;;;;5054437;28;20025;-65
2021/12/16 10:23:38;;;;;;;3.08;0.70;;;2.40;99.90;;;;;;5054649;28;20025;-65
2021/12/16 10:26:19;;;;;;;3.28;0.85;;;2.40;99.90;;;;;;5054250;28;20033;-65
2021/12/16 10:28:49;;;;;;;1.88;0.80;;;2.40;99.90;;;;;;5054448;28;20048;-65
2021/12/16 10:31:21;;;;;;;1.80;0.88;;;2.40;99.90;;;;;;5054360;28;20025;-65
2021/12/16 10:33:58;;;;;;;2.45;0.80;;;2.30;99.90;;;;;;5054520;28;20028;-65
2021/12/16 10:36:28;;;;;;;1.17;0.90;;;2.30;99.90;;;;;;5053763;28;20040;-65
2021/12/16 10:39:05;;;;;;;1.33;0.80;;;2.30;99.90;;;;;;5053826;28;20044;-65
2021/12/16 10:41:37;;;;;;;1.67;0.80;;;2.30;99.90;;;;;;5053574;28;20021;-65
2021/12/16 10:44:17;;;;;;;3.55;0.90;;;2.30;99.90;;;;;;5054002;28;20082;-65
2021/12/16 10:47:10;;;;;;;1.52;0.70;;;2.30;99.90;;;;;;5054431;28;20103;-65
2021/12/16 10:49:40;;;;;;;0.80;0.70;;;2.30;99.90;;;;;;5054059;28;20052;-63
2021/12/16 10:52:12;;;;;;;2.83;1.08;;;2.30;99.90;;;;;;5054028;28;20021;-64
2021/12/16 10:54:41;;;;;;;5.38;0.80;;;2.30;99.90;;;;;;5055249;28;20040;-65
2021/12/16 10:57:19;;;;;;;3.67;0.80;;;2.40;99.90;;;;;;5053493;28;20536;-65
2021/12/16 10:59:50;;;;;;;0.68;0.65;;;2.40;99.90;;;;;;5054077;28;20032;-65
2021/12/16 11:02:22;;;;;;;;;;;2.40;99.90;;;;;;5054191;28;20477;-65
2021/12/16 11:04:49;;;;;;;0.73;0.60;;;2.40;99.90;;;;;;5053710;28;19935;-65
2021/12/16 11:07:38;;;;;;;2.42;0.90;;;2.50;99.90;;;;;;5053774;28;20078;-65
2021/12/16 11:10:13;;;;;;;0.68;0.60;;;2.40;99.90;;;;;;5053782;28;20021;-65
2021/12/16 11:12:43;;;;;;;1.52;0.70;;;2.40;99.90;;;;;;5053938;28;20029;-66
2021/12/16 11:15:11;;;;;;;1.57;0.87;;;2.40;99.90;;;;;;5053665;28;20511;-65
2021/12/16 11:17:49;;;;;;;0.73;0.60;;;2.40;99.90;;;;;;5051612;28;20508;-64
2021/12/16 11:20:40;;;;;;;3.78;0.88;;;2.40;99.90;;;;;;5049865;28;20090;-66
2021/12/16 11:23:14;;;;;;;4.70;1.05;;;2.40;99.90;;;;;;5041296;28;20017;-67
2021/12/16 11:25:48;;;;;;;5.38;0.90;;;2.50;99.90;;;;;;5053329;28;20037;-68
2021/12/16 11:28:19;;;;;;;1.02;0.80;;;2.40;99.90;;;;;;5053164;28;20079;-66
2021/12/16 11:31:13;;;;;;;2.55;0.70;;;2.40;99.90;;;;;;5053500;28;20025;-66
2021/12/16 11:33:47;;;;;;;1.67;0.60;;;3.00;99.90;;;;;;5053036;28;20067;-67
2021/12/16 11:36:20;;;;;;;1.23;0.63;;;3.60;99.90;;;;;;5052919;28;20027;-66
2021/12/16 11:38:52;;;;;;;2.10;0.80;;;3.70;99.90;;;;;;5053522;28;20416;-66
2021/12/16 11:41:29;;;;;;;3.22;1.05;;;3.30;99.90;;;;;;5052735;28;20028;-66
2021/12/16 11:44:00;;;;;;;1.10;0.70;;;3.00;99.90;;;;;;5053302;28;20025;-67
2021/12/16 11:46:31;;;;;;;0.63;0.60;;;2.80;99.90;;;;;;5052816;28;20033;-66
2021/12/16 11:49:01;;;;;;;2.28;0.80;;;2.60;99.90;;;;;;5053247;28;20469;-67
2021/12/16 11:51:36;;;;;;;0.60;0.60;;;2.50;99.90;;;;;;5052424;28;20025;-67
2021/12/16 11:54:12;;;;;;;2.80;0.65;;;2.50;99.90;;;;;;5053042;28;20075;-67
2021/12/16 11:56:38;;;;;;;0.98;0.60;;;2.40;99.90;;;;;;5052563;28;20087;-67
2021/12/16 11:59:05;;;;;;;2.22;0.70;;;2.40;99.90;;;;;;5053074;28;20017;-67
2021/12/16 12:01:32;;;;;;;2.10;0.70;;;2.40;99.90;;;;;;5052600;28;20025;-67
2021/12/16 12:04:03;;;;;;;0.73;0.70;;;2.30;99.90;;;;;;5052505;28;20048;-66
2021/12/16 12:06:31;;;;;;;1.95;1.40;;;2.30;99.90;;;;;;5052310;28;20021;-66
2021/12/16 12:08:59;;;;;;;8.30;4.22;;;2.30;99.90;;;;;;5052601;28;20083;-66
2021/12/16 12:11:34;;;;;;;3.45;1.80;;;2.30;99.90;;;;;;5052348;28;20504;-66
2021/12/16 12:14:05;;;;;;;1.55;1.10;;;2.20;99.90;;;;;;5052577;28;20021;-67
2021/12/16 12:16:43;;;;;;;1.42;0.70;;;2.20;99.90;;;;;;5051857;28;20029;-66
2021/12/16 12:19:12;;;;;;;0.80;0.70;;;2.10;99.90;;;;;;5049907;28;20427;-67
2021/12/16 12:21:54;;;;;;;3.55;0.88;;;2.10;99.90;;;;;;5052316;28;20091;-66
2021/12/16 12:24:32;;;;;;;3.03;0.88;;;2.10;99.90;;;;;;5052280;28;20044;-67
2021/12/16 12:26:59;;;;;;;1.02;0.57;;;2.10;99.90;;;;;;5052214;28;20114;-66
2021/12/16 12:29:36;;;;;;;2.05;0.68;;;2.00;99.90;;;;;;5052342;28;20025;-66
2021/12/16 12:32:11;;;;;;;1.13;0.70;;;2.00;99.90;;;;;;5052177;28;20108;-66
2021/12/16 12:34:39;;;;;;;0.90;0.63;;;2.00;99.90;;;;;;5052330;28;20063;-66
2021/12/16 12:37:10;;;;;;;1.83;0.75;;;2.00;99.90;;;;;;5052366;28;20052;-66
2021/12/16 12:39:39;;;;;;;;;;;2.00;99.90;;;;;;5051250;28;20024;-66
2021/12/16 12:42:06;;;;;;;0.93;0.70;;;2.00;99.90;;;;;;5052075;28;19904;-66
2021/12/16 12:44:33;;;;;;;0.70;0.70;;;2.00;99.90;;;;;;5050912;28;20043;-66
2021/12/16 12:47:05;;;;;;;2.38;0.70;;;2.00;99.90;;;;;;5051897;28;20033;-66
2021/12/16 12:49:32;;;;;;;0.88;0.60;;;2.00;99.90;;;;;;5052098;28;20039;-66
2021/12/16 12:52:08;;;;;;;0.98;0.70;;;2.10;99.90;;;;;;5051797;28;20033;-66
2021/12/16 12:54:35;;;;;;;1.35;0.80;;;2.10;99.90;;;;;;5051541;28;20053;-66
2021/12/16 12:57:37;;;;;;;2.40;0.70;;;2.10;99.90;;;;;;5051329;28;20044;-65
2021/12/16 13:00:06;;;;;;;3.42;0.70;;;2.10;99.90;;;;;;5051562;28;20032;-66
2021/12/16 13:02:36;;;;;;;0.60;0.60;;;2.10;99.90;;;;;;5050801;28;20025;-66
2021/12/16 13:05:10;;;;;;;1.38;0.60;;;2.10;99.90;;;;;;5052032;28;20041;-67
2021/12/16 13:07:36;;;;;;;1.30;0.80;;;2.10;99.90;;;;;;5051707;28;20029;-66
2021/12/16 13:10:17;;;;;;;0.98;0.68;;;2.20;99.90;;;;;;5051442;28;20029;-65
2021/12/16 13:13:00;;;;;;;0.82;0.50;;;2.70;99.90;;;;;;5050633;28;20087;-65
2021/12/16 13:15:43;;;;;;;0.80;0.80;;;2.70;99.90;;;;;;5048812;28;20021;-65
2021/12/16 13:24:55;;;;;;;3.72;0.70;;;2.20;99.90;;;;;;5051526;28;20115;-67
2021/12/16 13:27:08;;;;;;;2.28;0.77;;;2.10;99.90;;;;;;5050994;28;20067;-65
2021/12/16 13:29:54;;;;;;;0.93;0.73;;;2.10;99.90;;;;;;5051520;28;20518;-65
2021/12/16 13:32:27;;;;;;;1.02;0.50;;;2.20;99.90;;;;;;5051637;28;20029;-66
2021/12/16 13:35:05;;;;;;;0.60;0.60;;;2.20;99.90;;;;;;5050270;28;20422;-65
2021/12/16 13:37:34;;;;;;;2.95;0.80;;;2.10;99.90;;;;;;5051493;28;20025;-65
2021/12/16 13:40:20;;;;;;;1.45;0.65;;;2.10;99.90;;;;;;5051545;28;20037;-66
2021/12/16 13:42:57;;;;;;;0.57;0.57;;;2.00;99.90;;;;;;5051477;28;20591;-65
2021/12/16 13:45:43;;;;;;;2.85;1.10;;;2.00;99.90;;;;;;5051534;28;20036;-65
2021/12/16 14:02:31;;;;;;;0.82;0.82;;;2.30;99.90;;;;;;5051433;28;20025;-64
2021/12/16 14:05:15;;;;;;;6.75;3.20;;;2.10;99.90;;;;;;5051250;28;20033;-64
2021/12/16 14:08:05;;;;;;;5.72;3.08;;;2.00;99.90;;;;;;5051344;28;20114;-64
2021/12/16 14:41:50;;;;;;;2.33;1.45;;;2.00;99.90;;;;;;5054425;28;20033;-64
2021/12/16 14:47:11;;;;;;;3.50;1.92;;;1.80;99.90;;;;;;5054600;28;20036;-63
2021/12/16 14:49:43;;;;;;;3.67;2.03;;;1.70;99.90;;;;;;5054014;28;20087;-63
2021/12/16 14:52:20;;;;;;;1.13;1.05;;;1.60;99.90;;;;;;5054127;28;20443;-63
2021/12/16 14:54:55;;;;;;;1.85;1.45;;;1.60;99.90;;;;;;5054313;28;20031;-63
2021/12/16 14:57:36;;;;;;;4.28;1.75;;;1.50;99.90;;;;;;5053890;28;20037;-63
2021/12/16 15:00:20;;;;;;;3.85;2.47;;;1.50;99.90;;;;;;5054054;28;20032;-63
2021/12/16 15:02:49;;;;;;;2.17;1.60;;;1.40;99.90;;;;;;5054421;28;20025;-64
2021/12/16 15:05:30;;;;;;;7.25;3.80;;;1.40;99.90;;;;;;5053785;28;20029;-64
2021/12/16 15:08:13;;;;;;;31.95;10.90;;;1.30;99.90;;;;;;5054155;28;20061;-64
2021/12/16 15:10:39;;;;;;;20.73;7.03;;;1.30;99.90;;;;;;5053769;28;20029;-64
2021/12/16 15:13:13;;;;;;;27.08;10.95;;;1.40;99.90;;;;;;5053763;28;20108;-64
2021/12/16 15:16:02;;;;;;;31.55;12.57;;;1.40;99.90;;;;;;5053890;28;20029;-64
2021/12/16 15:40:54;;;;;;;2.63;0.85;;;1.60;99.90;;;;;;5053090;28;20021;-65
2021/12/16 15:43:22;;;;;;;0.68;0.68;;;1.60;99.90;;;;;;5052989;28;20027;-65
2021/12/16 15:45:54;;;;;;;1.15;0.93;;;1.70;99.90;;;;;;5053124;28;20033;-65
2021/12/16 15:48:28;;;;;;;3.72;1.67;;;1.70;99.90;;;;;;5053262;28;20075;-65
2021/12/16 15:51:09;;;;;;;9.70;4.38;;;1.70;99.90;;;;;;5053123;28;20029;-65
2021/12/16 15:53:38;;;;;;;3.85;2.10;;;1.80;99.90;;;;;;5052866;28;20075;-64
2021/12/16 15:56:06;;;;;;;3.58;3.20;;;1.80;99.90;;;;;;5052860;28;20049;-65
2021/12/16 15:58:42;;;;;;;7.00;6.10;;;1.80;99.90;;;;;;5053028;28;20028;-65
2021/12/16 16:01:20;;;;;;;3.60;2.38;;;1.70;99.90;;;;;;5051759;28;20457;-64
2021/12/16 16:03:46;;;;;;;2.80;1.25;;;1.70;99.90;;;;;;5052798;28;20025;-65
2021/12/16 16:06:14;;;;;;;3.70;1.77;;;1.80;99.90;;;;;;5052893;28;20121;-64
2021/12/16 16:08:46;;;;;;;1.38;1.05;;;1.70;99.90;;;;;;5052582;28;20033;-65
2021/12/16 16:11:15;;;;;;;1.38;1.00;;;1.80;99.90;;;;;;5052785;28;20032;-65
2021/12/16 16:13:48;;;;;;;1.30;1.20;;;1.80;99.90;;;;;;5052828;28;20029;-64
2021/12/16 16:16:17;;;;;;;0.80;0.80;;;1.80;99.90;;;;;;5052673;28;20025;-65
2021/12/16 16:18:55;;;;;;;1.17;0.90;;;1.90;99.90;;;;;;5052500;28;20112;-64
2021/12/16 16:21:30;;;;;;;1.42;0.80;;;1.90;99.90;;;;;;5052485;28;20028;-65
2021/12/16 16:24:00;;;;;;;0.95;0.80;;;1.90;99.90;;;;;;5052401;28;20514;-64
2021/12/16 16:26:28;;;;;;;1.83;1.00;;;1.90;99.90;;;;;;5052439;28;20515;-65
2021/12/16 16:29:08;;;;;;;1.73;1.20;;;1.90;99.90;;;;;;5052285;28;20036;-65
2021/12/16 16:31:35;;;;;;;52.20;23.63;;;2.00;99.90;;;;;;5052205;28;20025;-65
2021/12/16 16:34:07;;;;;;;74.63;30.60;;;2.00;99.90;;;;;;5052265;28;20033;-64
2021/12/16 16:36:38;;;;;;;28.48;12.40;;;2.00;99.90;;;;;;5051990;28;20017;-64
2021/12/16 16:39:09;;;;;;;28.45;11.30;;;2.00;99.90;;;;;;5051691;28;20036;-64
2021/12/16 16:41:45;;;;;;;71.30;31.75;;;2.10;99.90;;;;;;5052337;28;20019;-64
2021/12/16 16:44:14;;;;;;;77.82;35.40;;;2.10;99.90;;;;;;5052134;28;20479;-64
2021/12/16 16:47:00;;;;;;;13.50;6.35;;;2.10;99.90;;;;;;5052132;28;20041;-64
2021/12/16 16:49:41;;;;;;;4.82;3.00;;;2.20;99.90;;;;;;5051994;28;20108;-64
2021/12/16 16:52:13;;;;;;;11.07;6.75;;;2.20;99.90;;;;;;5052228;28;20095;-64
2021/12/16 16:54:45;;;;;;;2.05;1.40;;;2.20;99.90;;;;;;5051944;28;20044;-64
2021/12/16 16:57:20;;;;;;;3.10;2.80;;;2.20;99.90;;;;;;5051831;28;20053;-64
2021/12/16 16:59:49;;;;;;;4.93;2.90;;;2.20;99.90;;;;;;5050899;28;20028;-64
2021/12/16 17:02:24;;;;;;;2.22;2.03;;;2.30;99.90;;;;;;5051909;28;20472;-64
2021/12/16 17:05:22;;;;;;;2.33;1.42;;;2.30;99.90;;;;;;5051911;28;20120;-64
2021/12/16 17:08:04;;;;;;;1.80;1.33;;;2.20;99.90;;;;;;5052136;28;20029;-64
2021/12/16 17:10:47;;;;;;;1.77;1.25;;;2.30;99.90;;;;;;5051959;28;20124;-63
2021/12/16 17:13:41;;;;;;;2.20;1.05;;;2.20;99.90;;;;;;5051996;28;20529;-64
2021/12/16 17:18:46;;;;;;;3.47;1.50;;;2.20;99.90;;;;;;5051900;28;20068;-64
2021/12/16 17:21:21;;;;;;;2.10;1.90;;;2.30;99.90;;;;;;5052004;28;20071;-64
2021/12/16 17:23:51;;;;;;;2.25;1.08;;;2.30;99.90;;;;;;5051532;28;20121;-62
2021/12/16 17:26:27;;;;;;;1.27;1.00;;;2.30;99.90;;;;;;5051198;28;20108;-62
2021/12/16 17:28:57;;;;;;;1.92;0.80;;;2.30;99.90;;;;;;5051670;28;20124;-62
2021/12/16 17:31:31;;;;;;;4.13;0.90;;;2.20;99.90;;;;;;5051733;28;20061;-62